Time;durP1;ratioP1;P1;durP2;ratioP2;P2;SDS_P1;SDS_P2;PMS_P1;PMS_P2;Temp;Humidity;BMP_temperature;BMP_pressure;BME280_temperature;BME280_humidity;BME280_pressure;Samples;Min_cycle;Max_cycle;Signal;HPM_P1;HPM_P2
2022/08/08 00:01:05;;;;;;;4.00;2.15;;;16.20;93.80;;;;;;4713250;30;20036;-78
2022/08/08 00:04:01;;;;;;;3.40;2.17;;;16.20;94.10;;;;;;4689671;30;20049;-77
2022/08/08 00:06:56;;;;;;;2.38;1.60;;;16.20;94.20;;;;;;4676388;30;20097;-78
2022/08/08 00:10:05;;;;;;;5.50;2.58;;;16.20;94.60;;;;;;4694060;30;20494;-78
2022/08/08 00:12:58;;;;;;;3.88;1.77;;;16.10;94.90;;;;;;4695723;30;20037;-78
2022/08/08 00:15:32;;;;;;;4.25;1.63;;;16.10;95.20;;;;;;4710233;30;20056;-78
2022/08/08 00:18:04;;;;;;;2.55;1.33;;;16.10;95.20;;;;;;4691124;30;20053;-78
2022/08/08 00:20:48;;;;;;;2.83;1.27;;;16.00;95.40;;;;;;4707735;30;20033;-78
2022/08/08 00:23:27;;;;;;;2.58;1.40;;;16.10;95.60;;;;;;4695516;30;20060;-78
2022/08/08 00:25:59;;;;;;;3.45;1.63;;;16.00;95.70;;;;;;4704308;30;20045;-77
2022/08/08 00:28:33;;;;;;;3.15;1.98;;;16.00;96.00;;;;;;4710806;30;20062;-77
2022/08/08 00:31:02;;;;;;;4.47;1.40;;;16.00;96.20;;;;;;4696877;30;20037;-77
2022/08/08 00:33:35;;;;;;;3.13;1.35;;;16.00;96.40;;;;;;4711269;30;20044;-77
2022/08/08 00:36:27;;;;;;;3.67;1.50;;;15.90;96.50;;;;;;4693111;30;20049;-77
2022/08/08 00:39:04;;;;;;;3.03;1.20;;;15.90;96.70;;;;;;4694718;30;20033;-78
2022/08/08 00:41:50;;;;;;;3.10;1.13;;;15.90;96.70;;;;;;4709038;30;20045;-78
2022/08/08 00:44:58;;;;;;;3.67;1.60;;;15.80;96.80;;;;;;4710115;30;20033;-78
2022/08/08 00:47:56;;;;;;;2.00;1.30;;;15.80;97.00;;;;;;4688470;30;20121;-78
2022/08/08 00:50:35;;;;;;;2.65;1.33;;;15.70;97.10;;;;;;4695274;30;20056;-78
2022/08/08 00:53:07;;;;;;;3.08;1.50;;;15.70;97.20;;;;;;4693341;30;20505;-77
2022/08/08 00:55:52;;;;;;;;;;;15.70;97.30;;;;;;4692935;30;20482;-78
2022/08/08 00:58:40;;;;;;;2.28;1.42;;;15.60;97.30;;;;;;4679804;30;20296;-78
2022/08/08 01:01:19;;;;;;;3.38;1.77;;;15.60;97.60;;;;;;4693972;30;20044;-78
2022/08/08 01:04:11;;;;;;;2.25;1.25;;;15.50;97.80;;;;;;4694547;30;20052;-77
2022/08/08 01:07:34;;;;;;;1.80;0.90;;;15.50;98.00;;;;;;4707837;30;20037;-77
2022/08/08 01:10:37;;;;;;;4.82;2.00;;;15.50;98.10;;;;;;4644600;30;20061;-78
2022/08/08 01:13:35;;;;;;;4.20;1.67;;;15.40;98.30;;;;;;4679651;30;20044;-78
2022/08/08 01:16:44;;;;;;;3.95;1.35;;;15.50;98.50;;;;;;4678425;30;20405;-77
2022/08/08 01:19:41;;;;;;;2.78;1.33;;;15.40;98.60;;;;;;4681093;30;20029;-77
2022/08/08 01:22:17;;;;;;;3.17;1.58;;;15.40;98.60;;;;;;4693389;30;20679;-77
2022/08/08 01:25:06;;;;;;;4.53;2.13;;;15.40;98.70;;;;;;4691391;30;20037;-78
2022/08/08 01:28:14;;;;;;;4.53;2.33;;;15.40;99.00;;;;;;4677809;30;20048;-78
2022/08/08 01:30:46;;;;;;;4.13;1.40;;;15.40;99.20;;;;;;4654583;30;20057;-78
2022/08/08 01:33:34;;;;;;;3.55;1.80;;;15.40;99.10;;;;;;4679592;30;20037;-78
2022/08/08 01:36:04;;;;;;;4.90;2.08;;;15.40;99.30;;;;;;4707249;30;20049;-77
2022/08/08 01:39:05;;;;;;;3.55;1.92;;;15.30;99.50;;;;;;4692213;30;20048;-78
2022/08/08 01:41:58;;;;;;;3.65;1.73;;;15.20;99.80;;;;;;4671148;30;20052;-78
2022/08/08 01:44:39;;;;;;;5.10;2.17;;;15.20;99.90;;;;;;4690534;30;20041;-78
2022/08/08 01:47:32;;;;;;;2.33;1.17;;;15.20;99.90;;;;;;4692574;30;20048;-76
2022/08/08 01:50:27;;;;;;;2.10;1.30;;;15.10;99.90;;;;;;4694447;30;20029;-76
2022/08/08 01:53:19;;;;;;;2.03;1.33;;;15.10;99.90;;;;;;4667609;30;20284;-76
2022/08/08 01:56:41;;;;;;;4.53;2.25;;;15.10;99.90;;;;;;4687222;30;20033;-76
2022/08/08 01:59:34;;;;;;;3.10;2.30;;;15.10;99.90;;;;;;4640669;30;20054;-76
2022/08/08 02:02:25;;;;;;;3.42;1.35;;;15.00;99.90;;;;;;4651240;30;20092;-77
2022/08/08 02:05:18;;;;;;;1.67;1.38;;;15.00;99.90;;;;;;4684158;30;20048;-76
2022/08/08 02:08:02;;;;;;;3.28;2.00;;;15.10;99.90;;;;;;4706807;30;20126;-76
2022/08/08 02:10:44;;;;;;;5.70;2.00;;;15.00;99.90;;;;;;4692565;30;20386;-76
2022/08/08 02:13:43;;;;;;;2.65;1.60;;;15.00;99.90;;;;;;4691755;30;20034;-76
2022/08/08 02:16:21;;;;;;;3.40;1.73;;;15.00;99.90;;;;;;4691145;30;20045;-76
2022/08/08 02:19:12;;;;;;;5.05;2.15;;;15.00;99.90;;;;;;4692974;30;20037;-76
2022/08/08 02:25:21;;;;;;;5.80;2.35;;;14.90;99.90;;;;;;4690519;30;20048;-76
2022/08/08 02:28:14;;;;;;;2.83;1.45;;;14.90;99.90;;;;;;4706042;30;20445;-76
2022/08/08 02:31:02;;;;;;;2.63;1.70;;;14.90;99.90;;;;;;4695992;30;20500;-76
2022/08/08 02:33:51;;;;;;;4.88;2.63;;;14.90;99.90;;;;;;4695449;30;20048;-76
2022/08/08 02:37:01;;;;;;;4.45;2.20;;;14.90;99.90;;;;;;4707859;30;20052;-76
2022/08/08 02:39:53;;;;;;;5.03;1.60;;;14.90;99.90;;;;;;4694030;30;20041;-76
2022/08/08 02:42:44;;;;;;;2.53;2.10;;;14.90;99.90;;;;;;4710471;30;20032;-76
2022/08/08 02:45:51;;;;;;;5.80;1.90;;;14.90;99.90;;;;;;4708992;30;20029;-76
2022/08/08 02:48:48;;;;;;;3.47;1.77;;;14.90;99.90;;;;;;4687292;30;20029;-75
2022/08/08 02:51:37;;;;;;;3.50;1.50;;;14.90;99.90;;;;;;4695612;30;20022;-76
2022/08/08 02:54:37;;;;;;;2.47;1.15;;;14.90;99.90;;;;;;4695974;30;20474;-77
2022/08/08 02:57:29;;;;;;;3.38;1.55;;;14.90;99.90;;;;;;4708225;30;20052;-75
2022/08/08 03:00:18;;;;;;;3.38;2.45;;;14.80;99.90;;;;;;4711216;30;20037;-76
2022/08/08 03:03:15;;;;;;;3.22;1.60;;;14.80;99.90;;;;;;4710673;30;20047;-76
2022/08/08 03:06:07;;;;;;;2.88;1.88;;;14.80;99.90;;;;;;4679896;30;20379;-76
2022/08/08 03:09:01;;;;;;;2.28;1.50;;;14.80;99.90;;;;;;4680149;30;20056;-76
2022/08/08 03:11:49;;;;;;;2.72;1.50;;;14.80;99.90;;;;;;4709236;30;20036;-76
2022/08/08 03:14:50;;;;;;;2.83;1.40;;;14.80;99.90;;;;;;4678377;30;20049;-75
2022/08/08 03:17:48;;;;;;;2.50;1.98;;;14.80;99.90;;;;;;4694898;30;20044;-76
2022/08/08 03:20:16;;;;;;;3.13;1.98;;;14.70;99.90;;;;;;4667543;30;21191;-76
2022/08/08 03:22:51;;;;;;;2.70;2.15;;;14.70;99.90;;;;;;4694498;30;20036;-76
2022/08/08 03:25:22;;;;;;;3.50;2.00;;;14.70;99.90;;;;;;4692435;30;20025;-76
2022/08/08 03:27:59;;;;;;;4.20;2.65;;;14.70;99.90;;;;;;4709029;30;20045;-76
2022/08/08 03:30:37;;;;;;;3.60;2.58;;;14.70;99.90;;;;;;4695312;30;20041;-76
2022/08/08 03:33:19;;;;;;;4.28;2.05;;;14.70;99.90;;;;;;4680396;30;20041;-76
2022/08/08 03:35:56;;;;;;;3.88;2.13;;;14.70;99.90;;;;;;4692189;30;20509;-76
2022/08/08 03:38:23;;;;;;;5.38;1.88;;;14.60;99.90;;;;;;4709110;30;20052;-76
2022/08/08 03:41:01;;;;;;;2.85;1.98;;;14.60;99.90;;;;;;4694262;30;20041;-75
2022/08/08 03:43:35;;;;;;;4.75;2.05;;;14.60;99.90;;;;;;4682547;30;20049;-77
2022/08/08 03:46:09;;;;;;;3.95;1.83;;;14.60;99.90;;;;;;4692752;30;20029;-78
2022/08/08 03:48:53;;;;;;;3.88;1.95;;;14.60;99.90;;;;;;4695305;30;20076;-78
2022/08/08 03:51:26;;;;;;;4.55;2.20;;;14.60;99.90;;;;;;4695953;30;20041;-76
2022/08/08 03:54:02;;;;;;;2.30;1.27;;;14.50;99.90;;;;;;4710002;30;20092;-75
2022/08/08 03:56:36;;;;;;;2.63;1.45;;;14.50;99.90;;;;;;4707505;30;20037;-76
2022/08/08 03:59:15;;;;;;;3.45;1.73;;;14.50;99.90;;;;;;4683502;30;20410;-76
2022/08/08 04:01:46;;;;;;;2.42;1.85;;;14.50;99.90;;;;;;4708215;30;20033;-75
2022/08/08 04:04:18;;;;;;;4.45;2.83;;;14.50;99.90;;;;;;4709964;30;20477;-75
2022/08/08 04:06:57;;;;;;;2.88;1.88;;;14.50;99.90;;;;;;4692944;30;20041;-75
2022/08/08 04:09:29;;;;;;;4.40;1.73;;;14.50;99.90;;;;;;4681870;30;20475;-75
2022/08/08 04:12:03;;;;;;;2.60;1.73;;;14.50;99.90;;;;;;4708396;30;20482;-75
2022/08/08 04:14:45;;;;;;;3.20;2.20;;;14.40;99.90;;;;;;4693785;30;20679;-75
2022/08/08 04:17:13;;;;;;;4.45;2.30;;;14.40;99.90;;;;;;4709458;30;20040;-76
2022/08/08 04:19:40;;;;;;;3.55;1.83;;;14.40;99.90;;;;;;4693437;30;20114;-75
2022/08/08 04:22:06;;;;;;;6.00;2.00;;;14.40;99.90;;;;;;4679440;30;20037;-75
2022/08/08 04:24:37;;;;;;;3.47;2.28;;;14.30;99.90;;;;;;4693897;30;20029;-78
2022/08/08 04:27:07;;;;;;;4.47;2.45;;;14.40;99.90;;;;;;4693687;30;20451;-78
2022/08/08 04:29:34;;;;;;;3.75;2.40;;;14.40;99.90;;;;;;4694570;30;20040;-78
2022/08/08 04:32:01;;;;;;;3.60;1.90;;;14.40;99.90;;;;;;4680488;30;20056;-78
2022/08/08 04:34:31;;;;;;;3.53;1.70;;;14.40;99.90;;;;;;4677084;30;20041;-78
2022/08/08 04:36:59;;;;;;;4.50;2.20;;;14.40;99.90;;;;;;4693863;30;20418;-78
2022/08/08 04:39:26;;;;;;;2.75;1.88;;;14.40;99.90;;;;;;4665919;30;20269;-78
2022/08/08 04:41:52;;;;;;;4.55;2.30;;;14.40;99.90;;;;;;4667410;30;20032;-78
2022/08/08 04:44:23;;;;;;;4.65;2.08;;;14.50;99.90;;;;;;4692596;30;20029;-78
2022/08/08 04:46:52;;;;;;;3.33;1.63;;;14.50;99.90;;;;;;4667546;30;20402;-78
2022/08/08 04:49:18;;;;;;;4.35;2.38;;;14.50;99.90;;;;;;4679563;30;20033;-78
2022/08/08 04:51:46;;;;;;;4.00;2.13;;;14.60;99.90;;;;;;4680081;30;20049;-78
2022/08/08 04:54:16;;;;;;;4.20;2.30;;;14.60;99.90;;;;;;4680469;30;20053;-78
2022/08/08 04:56:45;;;;;;;2.70;1.60;;;14.70;99.90;;;;;;4668059;30;20045;-78
2022/08/08 04:59:14;;;;;;;5.20;1.85;;;14.80;99.90;;;;;;4680029;30;20044;-78
2022/08/08 05:01:44;;;;;;;3.72;1.88;;;14.90;99.90;;;;;;4667350;30;20147;-76
2022/08/08 05:04:16;;;;;;;4.47;2.38;;;14.90;99.90;;;;;;4679908;30;20044;-78
2022/08/08 05:06:51;;;;;;;3.67;1.65;;;14.90;99.90;;;;;;4665982;30;20060;-76
2022/08/08 05:09:18;;;;;;;4.03;2.03;;;15.00;99.90;;;;;;4678030;30;20055;-76
2022/08/08 05:11:46;;;;;;;3.13;1.40;;;15.30;99.90;;;;;;4694345;30;20246;-76
2022/08/08 05:14:18;;;;;;;4.28;1.65;;;15.40;99.90;;;;;;4692900;30;20048;-76
2022/08/08 05:16:56;;;;;;;3.60;1.60;;;15.50;99.90;;;;;;4662858;30;20501;-75
2022/08/08 05:19:42;;;;;;;4.95;1.73;;;15.60;99.90;;;;;;4704758;30;20029;-76
2022/08/08 05:22:12;;;;;;;2.40;1.10;;;15.80;99.90;;;;;;4683233;30;20044;-76
2022/08/08 05:24:53;;;;;;;2.05;0.90;;;15.90;99.90;;;;;;4696199;30;20056;-76
2022/08/08 05:27:25;;;;;;;4.45;1.27;;;16.00;99.90;;;;;;4694679;30;20133;-76
2022/08/08 05:29:54;;;;;;;4.10;1.52;;;16.00;99.90;;;;;;4692779;30;20045;-76
2022/08/08 05:32:36;;;;;;;1.65;0.75;;;16.10;99.90;;;;;;4707032;30;20040;-76
2022/08/08 05:35:13;;;;;;;2.17;0.65;;;16.20;99.90;;;;;;4676033;30;20064;-76
2022/08/08 05:38:37;;;;;;;2.00;0.70;;;16.40;99.90;;;;;;4657028;30;20057;-76
2022/08/08 05:41:11;;;;;;;2.78;0.80;;;16.60;99.90;;;;;;4695701;30;20064;-76
2022/08/08 05:43:43;;;;;;;1.98;0.95;;;16.80;99.90;;;;;;4679715;30;20143;-78
2022/08/08 05:46:12;;;;;;;3.67;0.80;;;16.90;99.90;;;;;;4676312;30;20033;-78
2022/08/08 05:48:43;;;;;;;2.30;0.68;;;17.10;99.90;;;;;;4693911;30;20041;-78
2022/08/08 05:51:30;;;;;;;3.22;1.00;;;17.20;99.90;;;;;;4709531;30;20029;-78
2022/08/08 05:54:13;;;;;;;1.80;0.70;;;17.40;99.90;;;;;;4679949;30;20053;-78
2022/08/08 05:56:51;;;;;;;3.55;0.93;;;17.60;99.90;;;;;;4692170;30;20070;-78
2022/08/08 05:59:37;;;;;;;1.65;0.63;;;17.70;99.90;;;;;;4680564;30;20045;-78
2022/08/08 06:05:15;;;;;;;1.92;0.90;;;18.20;99.90;;;;;;4690723;30;20474;-78
2022/08/08 06:07:48;;;;;;;1.88;0.70;;;18.30;99.90;;;;;;4706976;30;20045;-78
2022/08/08 06:10:19;;;;;;;3.60;0.80;;;18.50;99.90;;;;;;4693705;30;20055;-78
2022/08/08 06:12:47;;;;;;;2.67;0.80;;;18.70;99.90;;;;;;4707314;30;20055;-79
2022/08/08 06:15:14;;;;;;;2.85;0.80;;;18.70;99.90;;;;;;4675620;30;20155;-80
2022/08/08 06:17:41;;;;;;;1.65;0.70;;;18.80;99.90;;;;;;4678509;30;20041;-77
2022/08/08 06:20:12;;;;;;;2.38;0.50;;;18.90;99.90;;;;;;4692343;30;20036;-78
2022/08/08 06:22:39;;;;;;;1.75;0.50;;;19.00;99.90;;;;;;4706982;30;20029;-77
2022/08/08 06:25:12;;;;;;;3.92;0.60;;;19.20;99.90;;;;;;4678150;30;20045;-77
2022/08/08 06:27:50;;;;;;;2.43;0.90;;;19.30;99.90;;;;;;4693144;30;20045;-77
2022/08/08 06:30:18;;;;;;;3.75;1.40;;;19.40;99.90;;;;;;4691631;30;20249;-77
2022/08/08 06:32:49;;;;;;;2.63;1.35;;;19.60;99.70;;;;;;4694387;30;20040;-77
2022/08/08 06:35:17;;;;;;;3.97;0.70;;;19.80;99.40;;;;;;4676919;30;20052;-77
2022/08/08 06:38:10;;;;;;;3.63;0.60;;;20.10;99.00;;;;;;4679714;30;20044;-77
2022/08/08 06:40:39;;;;;;;3.38;0.50;;;20.40;98.20;;;;;;4664387;30;20037;-78
2022/08/08 06:43:13;;;;;;;2.70;0.50;;;20.50;97.90;;;;;;4665450;30;20052;-78
2022/08/08 06:45:52;;;;;;;2.67;0.50;;;20.60;97.50;;;;;;4691267;30;20497;-78
2022/08/08 06:48:19;;;;;;;2.30;0.52;;;20.60;97.30;;;;;;4678177;30;20049;-78
2022/08/08 06:50:46;;;;;;;1.02;0.40;;;20.70;97.00;;;;;;4695140;30;20048;-78
2022/08/08 06:53:17;;;;;;;2.08;0.50;;;20.90;96.90;;;;;;4664798;30;20045;-79
2022/08/08 06:55:47;;;;;;;2.67;0.40;;;21.20;96.50;;;;;;4676823;30;20049;-78
2022/08/08 06:58:14;;;;;;;1.80;0.57;;;21.50;96.10;;;;;;4679308;30;20827;-78
2022/08/08 07:00:49;;;;;;;3.00;0.60;;;21.60;95.70;;;;;;4679711;30;20034;-78
2022/08/08 07:03:38;;;;;;;3.25;0.70;;;21.70;95.40;;;;;;4709667;30;20482;-78
2022/08/08 07:06:09;;;;;;;2.97;0.70;;;21.70;95.10;;;;;;4692006;30;20021;-79
2022/08/08 07:08:57;;;;;;;4.50;1.20;;;21.70;95.10;;;;;;4691632;30;20025;-79
2022/08/08 07:11:35;;;;;;;3.78;0.95;;;21.70;94.80;;;;;;4691685;30;20029;-79
2022/08/08 07:14:26;;;;;;;3.65;0.68;;;21.70;94.60;;;;;;4690908;30;20053;-79
2022/08/08 07:17:36;;;;;;;3.38;0.95;;;21.70;94.50;;;;;;4694316;30;20417;-78
2022/08/08 07:20:14;;;;;;;1.90;0.60;;;21.70;94.30;;;;;;4676334;30;20045;-78
2022/08/08 07:23:03;;;;;;;2.40;0.65;;;21.70;94.00;;;;;;4683481;30;20056;-79
2022/08/08 07:25:38;;;;;;;4.68;0.90;;;21.80;93.90;;;;;;4708875;30;20041;-78
2022/08/08 07:28:14;;;;;;;2.88;0.60;;;22.00;93.70;;;;;;4696983;30;20575;-79
2022/08/08 07:30:51;;;;;;;2.55;0.80;;;22.00;93.50;;;;;;4668422;30;20078;-79
2022/08/08 07:33:29;;;;;;;1.92;0.60;;;22.10;93.30;;;;;;4699254;30;20037;-78
2022/08/08 07:35:59;;;;;;;3.92;0.70;;;22.20;93.50;;;;;;4681368;30;20049;-79
2022/08/08 07:38:29;;;;;;;;;;;22.30;92.90;;;;;;4690550;30;20037;-79
2022/08/08 07:41:12;;;;;;;1.77;0.40;;;22.40;93.00;;;;;;4681382;30;19923;-79
2022/08/08 07:43:44;;;;;;;4.07;0.50;;;22.50;92.40;;;;;;4711158;30;20555;-79
2022/08/08 07:46:13;;;;;;;2.63;0.50;;;22.60;92.10;;;;;;4694348;30;20069;-79
2022/08/08 07:48:43;;;;;;;4.13;0.52;;;22.70;91.90;;;;;;4697348;30;20041;-79
2022/08/08 07:51:21;;;;;;;2.33;0.52;;;22.80;91.60;;;;;;4697908;30;20037;-79
2022/08/08 07:54:31;;;;;;;2.28;0.50;;;22.80;91.50;;;;;;4694431;30;20052;-79
2022/08/08 07:58:00;;;;;;;4.57;0.60;;;22.80;91.20;;;;;;4698893;30;20037;-79
2022/08/08 08:00:51;;;;;;;2.55;0.60;;;22.90;91.00;;;;;;4681428;30;20044;-79
2022/08/08 08:04:03;;;;;;;2.20;0.50;;;23.00;90.80;;;;;;4696080;30;20487;-79
2022/08/08 08:06:43;;;;;;;1.50;0.63;;;23.10;90.40;;;;;;4643044;30;20040;-79
2022/08/08 08:09:25;;;;;;;3.35;1.20;;;23.10;90.10;;;;;;4680164;30;20057;-80
2022/08/08 08:11:54;;;;;;;2.25;0.60;;;23.20;90.00;;;;;;4696302;30;20388;-82
2022/08/08 08:14:52;;;;;;;2.00;0.50;;;23.20;89.50;;;;;;4677965;30;20054;-80
2022/08/08 08:17:31;;;;;;;2.08;0.50;;;23.30;89.30;;;;;;4665548;30;20041;-81
2022/08/08 08:20:01;;;;;;;1.80;0.30;;;23.40;88.90;;;;;;4677536;30;20061;-80
2022/08/08 08:22:32;;;;;;;2.00;0.47;;;23.50;88.50;;;;;;4669194;30;20037;-80
2022/08/08 08:25:02;;;;;;;1.45;0.45;;;23.70;88.20;;;;;;4662698;30;20438;-81
2022/08/08 08:27:28;;;;;;;2.90;0.60;;;23.80;87.50;;;;;;4649655;30;20061;-80
2022/08/08 08:29:56;;;;;;;1.88;0.35;;;23.80;85.50;;;;;;4666272;30;20060;-80
2022/08/08 08:32:23;;;;;;;1.98;0.40;;;23.80;85.30;;;;;;4668271;30;20502;-80
2022/08/08 08:34:51;;;;;;;1.17;0.40;;;23.80;85.70;;;;;;4666720;30;20237;-81
2022/08/08 08:37:18;;;;;;;1.65;0.30;;;23.90;85.40;;;;;;4663817;30;20454;-80
2022/08/08 08:39:48;;;;;;;1.50;0.35;;;24.00;84.20;;;;;;4651625;30;20061;-80
2022/08/08 08:42:16;;;;;;;1.95;0.30;;;24.00;83.60;;;;;;4660492;30;20075;-81
2022/08/08 08:44:43;;;;;;;1.88;0.30;;;24.10;83.50;;;;;;4638139;30;20056;-80
2022/08/08 08:47:10;;;;;;;0.77;0.20;;;24.30;82.80;;;;;;4696218;30;20033;-80
2022/08/08 08:49:37;;;;;;;1.08;0.40;;;24.40;82.70;;;;;;4668369;30;20391;-80
2022/08/08 08:52:06;;;;;;;1.23;0.20;;;24.60;81.80;;;;;;4696126;30;20049;-78
2022/08/08 08:54:40;;;;;;;0.98;0.40;;;24.70;81.00;;;;;;4692712;30;20037;-78
2022/08/08 08:57:08;;;;;;;1.92;0.40;;;24.80;80.50;;;;;;4680522;30;20049;-78
2022/08/08 08:59:40;;;;;;;1.35;0.60;;;25.00;79.50;;;;;;4695441;30;20048;-79
2022/08/08 09:02:23;;;;;;;6.30;2.88;;;25.00;78.80;;;;;;4709012;30;20048;-78
2022/08/08 09:04:58;;;;;;;2.55;0.82;;;25.00;78.20;;;;;;4692478;30;20029;-78
2022/08/08 09:07:29;;;;;;;3.95;2.80;;;24.90;78.20;;;;;;4679352;30;20389;-78
2022/08/08 09:09:58;;;;;;;1.60;0.57;;;25.00;78.40;;;;;;4694777;30;20034;-76
2022/08/08 09:12:36;;;;;;;3.20;0.50;;;25.20;77.60;;;;;;4678597;30;20040;-76
2022/08/08 09:15:13;;;;;;;1.10;0.20;;;25.50;77.10;;;;;;4690881;30;20387;-77
2022/08/08 09:17:51;;;;;;;1.67;0.30;;;25.70;75.90;;;;;;4693611;30;20385;-77
2022/08/08 09:20:23;;;;;;;0.80;0.20;;;25.90;74.60;;;;;;4680044;30;20115;-77
2022/08/08 09:22:50;;;;;;;1.20;0.35;;;26.10;74.40;;;;;;4677872;30;20052;-79
2022/08/08 09:25:22;;;;;;;0.75;0.30;;;26.20;73.80;;;;;;4663574;30;20033;-79
2022/08/08 09:28:21;;;;;;;2.20;0.47;;;26.10;73.50;;;;;;4679016;30;20033;-79
2022/08/08 09:30:52;;;;;;;2.55;0.30;;;26.10;72.70;;;;;;4640867;30;20447;-79
2022/08/08 09:33:29;;;;;;;1.10;0.30;;;26.30;71.70;;;;;;4649578;30;20050;-79
2022/08/08 09:36:00;;;;;;;1.98;0.30;;;26.50;71.10;;;;;;4652485;30;20045;-77
2022/08/08 09:38:57;;;;;;;1.95;0.22;;;26.30;70.50;;;;;;4627589;30;20046;-78
2022/08/08 09:41:50;;;;;;;1.42;0.30;;;26.10;71.00;;;;;;4685616;30;20457;-77
2022/08/08 09:44:47;;;;;;;0.80;0.30;;;25.90;71.50;;;;;;4703795;30;20141;-77
2022/08/08 09:47:57;;;;;;;1.83;0.40;;;25.90;71.30;;;;;;4676272;30;20052;-77
2022/08/08 09:50:26;;;;;;;2.08;0.32;;;26.40;70.70;;;;;;4669329;30;20049;-77
2022/08/08 09:52:57;;;;;;;;;;;26.80;69.40;;;;;;4649546;30;20041;-78
2022/08/08 09:55:29;;;;;;;1.85;0.30;;;26.70;68.90;;;;;;4686904;30;20328;-78
2022/08/08 10:01:23;;;;;;;0.50;0.20;;;26.30;68.90;;;;;;4626340;30;20532;-78
2022/08/08 10:04:07;;;;;;;1.30;0.40;;;26.20;69.10;;;;;;4610472;30;20642;-78
2022/08/08 10:06:55;;;;;;;1.30;0.30;;;26.10;68.60;;;;;;4609429;30;20519;-79
2022/08/08 10:09:42;;;;;;;0.80;0.20;;;26.00;68.60;;;;;;4615475;30;20058;-78
2022/08/08 10:12:40;;;;;;;1.80;0.30;;;26.00;68.40;;;;;;4642645;30;20418;-78
2022/08/08 10:15:09;;;;;;;1.92;0.30;;;26.10;68.60;;;;;;4675111;30;20041;-78
2022/08/08 10:17:47;;;;;;;0.90;0.30;;;26.10;68.30;;;;;;4679203;30;20056;-78
2022/08/08 10:20:14;;;;;;;1.13;0.40;;;26.30;68.40;;;;;;4677358;30;20609;-78
2022/08/08 10:22:59;;;;;;;3.47;2.55;;;26.50;68.10;;;;;;4692640;30;20052;-78
2022/08/08 10:25:26;;;;;;;2.95;0.80;;;26.70;67.50;;;;;;4691372;30;20418;-79
2022/08/08 10:28:06;;;;;;;2.55;0.30;;;26.70;67.40;;;;;;4710311;30;20049;-81
2022/08/08 10:30:33;;;;;;;1.08;0.50;;;26.60;67.40;;;;;;4694205;30;20482;-80
2022/08/08 10:33:01;;;;;;;2.00;0.30;;;26.50;67.50;;;;;;4683797;30;20037;-79
2022/08/08 10:35:30;;;;;;;0.73;0.30;;;26.50;67.10;;;;;;4691822;30;20397;-79
2022/08/08 10:37:59;;;;;;;1.27;0.20;;;26.50;67.00;;;;;;4706796;30;20056;-79
2022/08/08 10:40:28;;;;;;;1.20;0.30;;;26.50;66.80;;;;;;4693222;30;20044;-79
2022/08/08 10:43:05;;;;;;;0.75;0.30;;;26.50;67.40;;;;;;4694058;30;20054;-80
2022/08/08 10:45:42;;;;;;;1.92;0.80;;;26.50;66.70;;;;;;4690768;30;21630;-79
2022/08/08 10:48:11;;;;;;;2.25;0.70;;;26.70;66.60;;;;;;4691366;30;20052;-77
2022/08/08 10:50:38;;;;;;;1.63;0.70;;;26.90;66.50;;;;;;4710876;30;20235;-77
2022/08/08 10:53:05;;;;;;;5.47;3.78;;;27.10;66.00;;;;;;4712118;30;20021;-77
2022/08/08 10:55:33;;;;;;;2.03;0.60;;;27.20;65.60;;;;;;4693650;30;20030;-77
2022/08/08 10:58:02;;;;;;;1.73;1.20;;;27.20;65.20;;;;;;4682094;30;20045;-76
2022/08/08 11:00:29;;;;;;;2.65;0.80;;;27.30;65.20;;;;;;4710271;30;20040;-76
2022/08/08 11:02:57;;;;;;;2.22;0.68;;;27.40;65.00;;;;;;4710841;30;20025;-77
2022/08/08 11:05:26;;;;;;;1.55;0.60;;;27.40;64.70;;;;;;4708884;30;20037;-77
2022/08/08 11:07:54;;;;;;;2.10;0.55;;;27.50;64.60;;;;;;4694801;30;20047;-81
2022/08/08 11:10:22;;;;;;;0.70;0.30;;;27.70;64.40;;;;;;4708962;30;20033;-78
2022/08/08 11:12:53;;;;;;;1.33;0.30;;;27.70;64.10;;;;;;4712276;30;20032;-83
2022/08/08 11:15:48;;;;;;;1.55;0.32;;;27.60;63.70;;;;;;4708061;30;20067;-79
2022/08/08 11:18:35;;;;;;;0.70;0.20;;;27.40;63.70;;;;;;4710729;30;20490;-81
2022/08/08 11:21:11;;;;;;;1.05;0.30;;;27.20;63.70;;;;;;4695762;30;20025;-77
2022/08/08 11:23:53;;;;;;;1.48;0.40;;;27.00;64.70;;;;;;4679767;30;20041;-79
2022/08/08 11:26:26;;;;;;;1.38;0.30;;;27.00;64.00;;;;;;4679006;30;20063;-77
2022/08/08 11:29:04;;;;;;;2.33;0.20;;;27.00;64.20;;;;;;4666845;30;20513;-77
2022/08/08 11:31:49;;;;;;;2.22;0.30;;;27.00;64.30;;;;;;4688391;30;20037;-77
2022/08/08 11:34:29;;;;;;;2.55;0.70;;;27.00;64.20;;;;;;4679762;30;20057;-77
2022/08/08 11:37:08;;;;;;;0.95;0.32;;;27.10;64.20;;;;;;4694956;30;20048;-77
2022/08/08 11:40:07;;;;;;;1.38;0.43;;;28.00;64.00;;;;;;4682364;30;20020;-77
2022/08/08 11:43:19;;;;;;;1.52;0.40;;;29.40;62.90;;;;;;4679574;30;20038;-77
2022/08/08 11:45:47;;;;;;;1.80;0.30;;;30.40;59.50;;;;;;4687004;30;20054;-78
2022/08/08 11:48:21;;;;;;;0.88;0.30;;;30.20;58.90;;;;;;4676921;30;20041;-77
2022/08/08 11:50:51;;;;;;;2.88;0.30;;;29.70;59.00;;;;;;4705135;30;20053;-77
2022/08/08 11:53:38;;;;;;;1.33;0.30;;;29.20;59.50;;;;;;4674817;30;20045;-76
2022/08/08 11:56:23;;;;;;;1.02;0.30;;;28.90;60.70;;;;;;4677864;30;20050;-76
2022/08/08 11:58:52;;;;;;;1.02;0.30;;;28.60;60.10;;;;;;4704724;30;20068;-76
2022/08/08 12:01:31;;;;;;;1.20;0.30;;;28.30;60.50;;;;;;4691634;30;20068;-76
2022/08/08 12:04:04;;;;;;;1.23;0.25;;;28.10;60.70;;;;;;4705230;30;20052;-75
2022/08/08 12:06:34;;;;;;;1.70;0.50;;;28.00;61.20;;;;;;4674684;30;20049;-75
2022/08/08 12:09:11;;;;;;;1.10;0.40;;;28.50;60.80;;;;;;4691206;30;20582;-76
2022/08/08 12:11:40;;;;;;;1.00;0.32;;;29.30;59.00;;;;;;4677478;30;20162;-74
2022/08/08 12:14:23;;;;;;;0.70;0.30;;;30.40;57.40;;;;;;4690646;30;20038;-74
2022/08/08 12:16:52;;;;;;;2.10;0.30;;;31.50;55.40;;;;;;4688058;30;20037;-79
2022/08/08 12:19:20;;;;;;;1.38;0.30;;;32.20;53.60;;;;;;4717555;30;20041;-79
2022/08/08 12:21:47;;;;;;;1.73;0.20;;;32.30;52.90;;;;;;4706801;30;20037;-79
2022/08/08 12:24:16;;;;;;;1.65;0.30;;;32.00;51.90;;;;;;4698657;30;20041;-79
2022/08/08 12:26:51;;;;;;;1.83;0.50;;;31.60;51.30;;;;;;4693540;30;20049;-79
2022/08/08 12:29:33;;;;;;;1.30;0.30;;;30.90;52.60;;;;;;4715461;30;20060;-79
2022/08/08 12:32:02;;;;;;;2.97;0.50;;;30.40;54.20;;;;;;4711550;30;20036;-78
2022/08/08 12:34:39;;;;;;;2.50;0.30;;;30.00;54.70;;;;;;4712937;30;20409;-78
2022/08/08 12:37:09;;;;;;;0.82;0.30;;;29.60;54.00;;;;;;4713359;30;20029;-78
2022/08/08 12:39:37;;;;;;;2.92;0.40;;;29.30;54.40;;;;;;4695131;30;20036;-78
2022/08/08 12:42:03;;;;;;;2.00;0.30;;;29.10;54.30;;;;;;4694770;30;20674;-78
2022/08/08 12:44:31;;;;;;;2.42;0.30;;;29.00;54.70;;;;;;4691347;30;20044;-78
2022/08/08 12:46:59;;;;;;;0.75;0.30;;;29.00;54.60;;;;;;4694248;30;20017;-74
2022/08/08 12:49:32;;;;;;;0.70;0.30;;;29.10;54.90;;;;;;4709621;30;20072;-75
2022/08/08 12:51:59;;;;;;;1.50;0.30;;;30.70;54.20;;;;;;4692621;30;20494;-75
2022/08/08 12:54:31;;;;;;;0.80;0.30;;;32.00;51.60;;;;;;4691889;30;20835;-78
2022/08/08 12:57:01;;;;;;;1.42;0.30;;;32.10;50.50;;;;;;4694244;30;20509;-78
2022/08/08 12:59:29;;;;;;;0.77;0.20;;;31.80;50.70;;;;;;4693429;30;20049;-78
2022/08/08 13:02:00;;;;;;;1.23;0.30;;;31.70;50.70;;;;;;4680629;30;20048;-77
2022/08/08 13:04:33;;;;;;;0.85;0.20;;;31.50;51.00;;;;;;4706743;30;20485;-77
2022/08/08 13:07:08;;;;;;;1.55;0.20;;;32.10;50.70;;;;;;4677866;30;20032;-78
2022/08/08 13:09:45;;;;;;;1.17;0.22;;;33.60;48.70;;;;;;4693298;30;20043;-77
2022/08/08 13:12:23;;;;;;;1.42;0.60;;;34.60;47.60;;;;;;4705628;30;20025;-77
2022/08/08 13:14:51;;;;;;;1.63;0.52;;;35.70;46.10;;;;;;4682055;30;20482;-77
2022/08/08 13:17:31;;;;;;;2.20;0.30;;;35.10;45.80;;;;;;4707410;30;20024;-78
2022/08/08 13:20:25;;;;;;;1.95;0.22;;;34.00;46.60;;;;;;4694544;30;20029;-78
2022/08/08 13:22:55;;;;;;;1.75;0.30;;;32.80;48.20;;;;;;4693654;30;20410;-77
2022/08/08 13:25:26;;;;;;;4.55;0.65;;;31.50;50.00;;;;;;4690320;30;20428;-76
2022/08/08 13:27:54;;;;;;;1.45;0.30;;;31.40;50.20;;;;;;4692958;30;20057;-76
2022/08/08 13:30:27;;;;;;;1.25;0.30;;;31.70;50.40;;;;;;4708960;30;20048;-76
2022/08/08 13:33:17;;;;;;;1.63;0.30;;;32.60;49.70;;;;;;4695139;30;20045;-76
2022/08/08 13:35:47;;;;;;;1.05;0.30;;;33.80;48.10;;;;;;4706902;30;20048;-77
2022/08/08 13:38:17;;;;;;;2.15;0.32;;;34.50;47.00;;;;;;4677790;30;20685;-76
2022/08/08 13:40:46;;;;;;;1.02;0.28;;;34.70;45.80;;;;;;4708560;30;20362;-76
2022/08/08 13:43:23;;;;;;;1.40;0.30;;;35.40;45.60;;;;;;4708951;30;20029;-75
2022/08/08 13:46:12;;;;;;;2.13;0.30;;;36.10;44.50;;;;;;4689835;30;20053;-75
2022/08/08 13:48:44;;;;;;;1.75;0.40;;;36.80;43.80;;;;;;4693020;30;20044;-76
2022/08/08 13:51:17;;;;;;;1.50;0.40;;;37.40;43.00;;;;;;4708612;30;20033;-76
2022/08/08 13:53:55;;;;;;;1.90;1.13;;;38.00;42.10;;;;;;4706683;30;20490;-75
2022/08/08 13:56:37;;;;;;;2.28;0.43;;;38.60;41.60;;;;;;4703847;30;20044;-75